Anita, Iowa
Current Conditions -  °F | °C
As of 12:35 PM on Saturday 20 Dec 2014 (Local Time) from KAIO Reporting Station
Haze Haze  
Wind Chill: -3°   Ceiling: 500
Heat Index:   Visibility: 3mi
Dew Point:   Wind: 8mph
Humidity: 100%   Direction: 170°S
Pressure: 30.09"   Gusts: NA
Location:  41.45°N, 94.76°W
Report Text: KAIO 201835Z AUTO 17007KT 3SM BR BKN005 OVC010 01/01 A3009 RMK AO2
Loading
Personal Weather Stations






























Interactive Weather Map New forecast layout! Learn more

10-Day Weather Forecast

Advertisements
Track Severe Weather on mobile